Terminal Aerodrome Forecast
Issued by NWS Anchorage, AK

Home | Current Version | Previous Version | Text Only | Print | Product List | Glossary On
Versions: 1 2 3 4 5 6 7 8 9 10 11 12 13 14 15 16 17 18 19 20 21 22 23 24 25 26 27 28 29 30
000
FTAK31 PANC 062336
TAFANC
TAF
PANC 062336Z 0700/0806 01006KT P6SM VCSH SCT045 OVC100
     FM070300 03006KT P6SM SCT025 BKN060
     FM071500 01004KT P6SM SCT050 BKN080
     FM080500 36007KT P6SM BKN080 WS020/12030KT=

USA.gov is the U.S. government's official web portal to all federal, state and local government web resources and services.